sensor_id;sensor_type;location;lat;lon;timestamp;temperature;humidity
39737;DHT22;25421;48.918;9.434;2022-08-14T09:17:54;24.70;57.90
39737;DHT22;25421;48.918;9.434;2022-08-14T09:27:51;24.00;61.90
39737;DHT22;25421;48.918;9.434;2022-08-14T09:32:02;24.00;59.10
39737;DHT22;25421;48.918;9.434;2022-08-14T09:37:24;23.90;61.40
39737;DHT22;25421;48.918;9.434;2022-08-14T09:49:38;24.20;59.60
39737;DHT22;25421;48.918;9.434;2022-08-14T10:26:52;25.20;55.90
39737;DHT22;25421;48.918;9.434;2022-08-14T10:29:06;25.00;56.70
39737;DHT22;25421;48.918;9.434;2022-08-14T10:31:26;24.80;56.60
39737;DHT22;25421;48.918;9.434;2022-08-14T10:34:01;24.60;56.50
39737;DHT22;25421;48.918;9.434;2022-08-14T10:36:03;24.50;56.60
39737;DHT22;25421;48.918;9.434;2022-08-14T10:38:05;24.50;56.90
39737;DHT22;25421;48.918;9.434;2022-08-14T10:40:13;24.40;57.00
39737;DHT22;25421;48.918;9.434;2022-08-14T10:42:40;24.40;57.20
39737;DHT22;25421;48.918;9.434;2022-08-14T10:44:45;24.40;57.00
39737;DHT22;25421;48.918;9.434;2022-08-14T10:46:53;24.40;56.90
39737;DHT22;25421;48.918;9.434;2022-08-14T10:49:24;24.40;56.90
39737;DHT22;25421;48.918;9.434;2022-08-14T10:51:30;24.30;57.00
39737;DHT22;25421;48.918;9.434;2022-08-14T10:53:37;24.30;56.80
39737;DHT22;25421;48.918;9.434;2022-08-14T10:55:40;24.30;56.70
39737;DHT22;25421;48.918;9.434;2022-08-14T10:57:48;24.30;56.70
39737;DHT22;25421;48.918;9.434;2022-08-14T10:59:56;24.30;56.50
39737;DHT22;25421;48.918;9.434;2022-08-14T11:02:00;24.30;56.40
39737;DHT22;25421;48.918;9.434;2022-08-14T11:04:02;24.30;56.10
39737;DHT22;25421;48.918;9.434;2022-08-14T11:06:12;24.30;56.20
39737;DHT22;25421;48.918;9.434;2022-08-14T11:08:30;24.30;56.30
39737;DHT22;25421;48.918;9.434;2022-08-14T11:12:50;24.30;56.20
39737;DHT22;25421;48.918;9.434;2022-08-14T11:14:56;24.30;56.30
39737;DHT22;25421;48.918;9.434;2022-08-14T11:17:03;24.30;56.20
39737;DHT22;25421;48.918;9.434;2022-08-14T11:19:06;24.30;56.00
39737;DHT22;25421;48.918;9.434;2022-08-14T11:21:09;24.30;56.10
39737;DHT22;25421;48.918;9.434;2022-08-14T11:23:14;24.30;56.20
39737;DHT22;25421;48.918;9.434;2022-08-14T11:25:19;24.40;56.10
39737;DHT22;25421;48.918;9.434;2022-08-14T11:27:24;24.40;56.00
39737;DHT22;25421;48.918;9.434;2022-08-14T11:29:37;24.30;55.80
39737;DHT22;25421;48.918;9.434;2022-08-14T11:31:39;24.40;55.80
39737;DHT22;25421;48.918;9.434;2022-08-14T11:33:46;24.30;55.60
39737;DHT22;25421;48.918;9.434;2022-08-14T11:35:48;24.40;55.60
39737;DHT22;25421;48.918;9.434;2022-08-14T11:37:56;24.30;55.30
39737;DHT22;25421;48.918;9.434;2022-08-14T11:40:00;24.40;55.20
39737;DHT22;25421;48.918;9.434;2022-08-14T11:42:05;24.40;55.10
39737;DHT22;25421;48.918;9.434;2022-08-14T11:44:28;24.40;55.00
39737;DHT22;25421;48.918;9.434;2022-08-14T11:46:48;24.40;55.10
39737;DHT22;25421;48.918;9.434;2022-08-14T11:48:52;24.40;55.10
39737;DHT22;25421;48.918;9.434;2022-08-14T11:51:12;24.40;55.10
39737;DHT22;25421;48.918;9.434;2022-08-14T11:53:32;24.40;54.80
39737;DHT22;25421;48.918;9.434;2022-08-14T11:55:37;24.40;54.50
39737;DHT22;25421;48.918;9.434;2022-08-14T11:57:42;24.40;54.70
39737;DHT22;25421;48.918;9.434;2022-08-14T12:00:06;24.40;54.50
39737;DHT22;25421;48.918;9.434;2022-08-14T12:02:16;24.40;54.70
39737;DHT22;25421;48.918;9.434;2022-08-14T12:04:51;24.40;54.50
39737;DHT22;25421;48.918;9.434;2022-08-14T12:06:54;24.50;54.40
39737;DHT22;25421;48.918;9.434;2022-08-14T12:08:59;24.40;54.60
39737;DHT22;25421;48.918;9.434;2022-08-14T12:11:06;24.40;54.40
39737;DHT22;25421;48.918;9.434;2022-08-14T12:13:18;24.40;54.40
39737;DHT22;25421;48.918;9.434;2022-08-14T12:15:33;24.50;54.30
39737;DHT22;25421;48.918;9.434;2022-08-14T12:17:44;24.50;54.30
39737;DHT22;25421;48.918;9.434;2022-08-14T12:19:51;24.50;54.20
39737;DHT22;25421;48.918;9.434;2022-08-14T12:21:56;24.50;54.40
39737;DHT22;25421;48.918;9.434;2022-08-14T12:24:06;24.50;54.20
39737;DHT22;25421;48.918;9.434;2022-08-14T12:26:15;24.50;54.20
39737;DHT22;25421;48.918;9.434;2022-08-14T12:28:41;24.50;54.20
39737;DHT22;25421;48.918;9.434;2022-08-14T12:31:14;24.50;54.20
39737;DHT22;25421;48.918;9.434;2022-08-14T12:33:25;24.50;54.10
39737;DHT22;25421;48.918;9.434;2022-08-14T12:35:36;24.50;54.00
39737;DHT22;25421;48.918;9.434;2022-08-14T12:37:47;24.50;53.90
39737;DHT22;25421;48.918;9.434;2022-08-14T12:39:51;24.50;53.90
39737;DHT22;25421;48.918;9.434;2022-08-14T12:41:54;24.50;53.90
39737;DHT22;25421;48.918;9.434;2022-08-14T12:44:04;24.50;53.70
39737;DHT22;25421;48.918;9.434;2022-08-14T12:46:06;24.50;53.80
39737;DHT22;25421;48.918;9.434;2022-08-14T12:48:23;24.50;53.80
39737;DHT22;25421;48.918;9.434;2022-08-14T12:50:42;24.50;54.30
39737;DHT22;25421;48.918;9.434;2022-08-14T12:52:50;24.60;53.70
39737;DHT22;25421;48.918;9.434;2022-08-14T12:55:15;24.60;53.70
39737;DHT22;25421;48.918;9.434;2022-08-14T12:57:18;24.60;53.60
39737;DHT22;25421;48.918;9.434;2022-08-14T12:59:28;24.60;53.50
39737;DHT22;25421;48.918;9.434;2022-08-14T13:01:33;24.60;53.50
39737;DHT22;25421;48.918;9.434;2022-08-14T13:06:15;24.70;53.10
39737;DHT22;25421;48.918;9.434;2022-08-14T13:08:18;24.80;53.30
39737;DHT22;25421;48.918;9.434;2022-08-14T13:10:34;24.80;53.10
39737;DHT22;25421;48.918;9.434;2022-08-14T13:12:50;24.80;53.00
39737;DHT22;25421;48.918;9.434;2022-08-14T13:15:13;24.90;53.10
39737;DHT22;25421;48.918;9.434;2022-08-14T13:17:16;24.90;53.00
39737;DHT22;25421;48.918;9.434;2022-08-14T13:19:19;24.90;53.20
39737;DHT22;25421;48.918;9.434;2022-08-14T13:21:25;25.00;53.40
39737;DHT22;25421;48.918;9.434;2022-08-14T13:23:33;25.00;53.70
39737;DHT22;25421;48.918;9.434;2022-08-14T13:25:37;25.00;53.80
39737;DHT22;25421;48.918;9.434;2022-08-14T13:27:57;25.00;53.30
39737;DHT22;25421;48.918;9.434;2022-08-14T13:30:00;25.00;53.40
39737;DHT22;25421;48.918;9.434;2022-08-14T13:32:11;25.00;53.30
39737;DHT22;25421;48.918;9.434;2022-08-14T13:34:14;24.90;53.30
39737;DHT22;25421;48.918;9.434;2022-08-14T13:36:16;25.00;53.80
39737;DHT22;25421;48.918;9.434;2022-08-14T13:38:38;25.20;54.30
39737;DHT22;25421;48.918;9.434;2022-08-14T13:40:42;25.30;53.70
39737;DHT22;25421;48.918;9.434;2022-08-14T13:42:49;25.30;53.50
39737;DHT22;25421;48.918;9.434;2022-08-14T13:44:54;25.30;53.60
39737;DHT22;25421;48.918;9.434;2022-08-14T13:46:58;25.30;53.30
39737;DHT22;25421;48.918;9.434;2022-08-14T13:49:04;25.20;53.20
39737;DHT22;25421;48.918;9.434;2022-08-14T13:51:11;25.20;53.30
39737;DHT22;25421;48.918;9.434;2022-08-14T13:53:21;25.10;53.20
39737;DHT22;25421;48.918;9.434;2022-08-14T13:55:25;25.10;53.30
39737;DHT22;25421;48.918;9.434;2022-08-14T13:57:31;25.10;53.20
39737;DHT22;25421;48.918;9.434;2022-08-14T13:59:34;25.10;53.20
39737;DHT22;25421;48.918;9.434;2022-08-14T14:01:39;25.10;53.10
39737;DHT22;25421;48.918;9.434;2022-08-14T14:03:56;25.10;53.10
39737;DHT22;25421;48.918;9.434;2022-08-14T14:05:59;25.10;53.10
39737;DHT22;25421;48.918;9.434;2022-08-14T14:08:04;25.10;53.00
39737;DHT22;25421;48.918;9.434;2022-08-14T14:10:08;25.10;53.00
39737;DHT22;25421;48.918;9.434;2022-08-14T14:12:14;25.10;52.80
39737;DHT22;25421;48.918;9.434;2022-08-14T14:14:38;25.10;52.80
39737;DHT22;25421;48.918;9.434;2022-08-14T14:16:52;25.10;52.70
39737;DHT22;25421;48.918;9.434;2022-08-14T14:18:55;25.10;52.60
39737;DHT22;25421;48.918;9.434;2022-08-14T14:21:09;25.10;52.70
39737;DHT22;25421;48.918;9.434;2022-08-14T14:23:12;25.10;52.60
39737;DHT22;25421;48.918;9.434;2022-08-14T14:25:19;25.10;52.50
39737;DHT22;25421;48.918;9.434;2022-08-14T14:27:25;25.10;52.50
39737;DHT22;25421;48.918;9.434;2022-08-14T14:29:42;25.20;52.60
39737;DHT22;25421;48.918;9.434;2022-08-14T14:31:51;25.20;52.50
39737;DHT22;25421;48.918;9.434;2022-08-14T14:34:02;25.10;52.40
39737;DHT22;25421;48.918;9.434;2022-08-14T14:36:20;25.20;52.50
39737;DHT22;25421;48.918;9.434;2022-08-14T14:38:25;25.20;53.10
39737;DHT22;25421;48.918;9.434;2022-08-14T14:40:33;25.10;52.30
39737;DHT22;25421;48.918;9.434;2022-08-14T14:42:56;25.20;52.40
39737;DHT22;25421;48.918;9.434;2022-08-14T14:45:10;25.20;52.40
39737;DHT22;25421;48.918;9.434;2022-08-14T14:47:16;25.20;52.30
39737;DHT22;25421;48.918;9.434;2022-08-14T14:49:25;25.20;52.20
39737;DHT22;25421;48.918;9.434;2022-08-14T14:51:47;25.20;52.20
39737;DHT22;25421;48.918;9.434;2022-08-14T14:53:53;25.20;52.10
39737;DHT22;25421;48.918;9.434;2022-08-14T14:55:55;25.20;52.10
39737;DHT22;25421;48.918;9.434;2022-08-14T14:58:17;25.20;52.00
39737;DHT22;25421;48.918;9.434;2022-08-14T15:00:21;25.20;51.70
39737;DHT22;25421;48.918;9.434;2022-08-14T15:02:37;25.20;51.90
39737;DHT22;25421;48.918;9.434;2022-08-14T15:04:42;25.20;51.80
39737;DHT22;25421;48.918;9.434;2022-08-14T15:06:44;25.20;51.50
39737;DHT22;25421;48.918;9.434;2022-08-14T15:08:48;25.20;51.40
39737;DHT22;25421;48.918;9.434;2022-08-14T15:10:59;25.20;51.20
39737;DHT22;25421;48.918;9.434;2022-08-14T15:13:01;25.20;51.60
39737;DHT22;25421;48.918;9.434;2022-08-14T15:15:08;25.20;50.60
39737;DHT22;25421;48.918;9.434;2022-08-14T15:17:12;25.20;50.50
39737;DHT22;25421;48.918;9.434;2022-08-14T15:19:14;25.30;50.50
39737;DHT22;25421;48.918;9.434;2022-08-14T15:21:16;25.30;50.20
39737;DHT22;25421;48.918;9.434;2022-08-14T15:23:20;25.30;50.30
39737;DHT22;25421;48.918;9.434;2022-08-14T15:25:23;25.20;50.20
39737;DHT22;25421;48.918;9.434;2022-08-14T15:27:25;25.30;50.90
39737;DHT22;25421;48.918;9.434;2022-08-14T15:29:27;25.30;50.40
39737;DHT22;25421;48.918;9.434;2022-08-14T15:31:35;25.30;50.30
39737;DHT22;25421;48.918;9.434;2022-08-14T15:33:40;25.30;50.30
39737;DHT22;25421;48.918;9.434;2022-08-14T15:36:20;25.30;50.30
39737;DHT22;25421;48.918;9.434;2022-08-14T15:38:30;25.30;50.60
39737;DHT22;25421;48.918;9.434;2022-08-14T15:40:41;25.40;50.80
39737;DHT22;25421;48.918;9.434;2022-08-14T15:42:44;25.30;50.80
39737;DHT22;25421;48.918;9.434;2022-08-14T15:44:47;25.30;50.80
39737;DHT22;25421;48.918;9.434;2022-08-14T15:47:03;25.40;50.90
39737;DHT22;25421;48.918;9.434;2022-08-14T15:49:07;25.30;50.80
39737;DHT22;25421;48.918;9.434;2022-08-14T15:51:10;25.30;50.90
39737;DHT22;25421;48.918;9.434;2022-08-14T15:53:13;25.40;50.90
39737;DHT22;25421;48.918;9.434;2022-08-14T15:55:15;25.40;50.90
39737;DHT22;25421;48.918;9.434;2022-08-14T15:57:17;25.40;51.20
39737;DHT22;25421;48.918;9.434;2022-08-14T15:59:21;25.50;50.60
39737;DHT22;25421;48.918;9.434;2022-08-14T16:01:23;25.50;51.00
39737;DHT22;25421;48.918;9.434;2022-08-14T16:03:47;25.50;50.70
39737;DHT22;25421;48.918;9.434;2022-08-14T16:05:49;25.50;50.80
39737;DHT22;25421;48.918;9.434;2022-08-14T16:07:52;25.50;51.00
39737;DHT22;25421;48.918;9.434;2022-08-14T16:09:55;25.40;51.00
39737;DHT22;25421;48.918;9.434;2022-08-14T16:12:17;25.40;51.00
39737;DHT22;25421;48.918;9.434;2022-08-14T16:14:21;25.40;51.00
39737;DHT22;25421;48.918;9.434;2022-08-14T16:16:26;25.40;51.70
39737;DHT22;25421;48.918;9.434;2022-08-14T16:18:50;25.40;51.10
39737;DHT22;25421;48.918;9.434;2022-08-14T16:20:55;25.40;51.10
39737;DHT22;25421;48.918;9.434;2022-08-14T16:22:58;25.40;51.10
39737;DHT22;25421;48.918;9.434;2022-08-14T16:25:03;25.40;51.00
39737;DHT22;25421;48.918;9.434;2022-08-14T16:27:06;25.40;51.10
39737;DHT22;25421;48.918;9.434;2022-08-14T16:29:11;25.40;51.10
39737;DHT22;25421;48.918;9.434;2022-08-14T16:31:18;25.40;51.10
39737;DHT22;25421;48.918;9.434;2022-08-14T16:33:25;25.40;51.10
39737;DHT22;25421;48.918;9.434;2022-08-14T16:35:47;25.40;51.30
39737;DHT22;25421;48.918;9.434;2022-08-14T16:38:03;25.40;51.10
39737;DHT22;25421;48.918;9.434;2022-08-14T16:40:30;25.40;51.10
39737;DHT22;25421;48.918;9.434;2022-08-14T16:42:44;25.40;51.10
39737;DHT22;25421;48.918;9.434;2022-08-14T16:45:08;25.40;51.10
39737;DHT22;25421;48.918;9.434;2022-08-14T16:47:12;25.40;51.00
39737;DHT22;25421;48.918;9.434;2022-08-14T16:49:15;25.40;51.00
39737;DHT22;25421;48.918;9.434;2022-08-14T16:51:18;25.50;51.00
39737;DHT22;25421;48.918;9.434;2022-08-14T16:53:20;25.40;50.90
39737;DHT22;25421;48.918;9.434;2022-08-14T16:55:25;25.50;51.00
39737;DHT22;25421;48.918;9.434;2022-08-14T16:57:31;25.50;51.00
39737;DHT22;25421;48.918;9.434;2022-08-14T16:59:33;25.50;51.00
39737;DHT22;25421;48.918;9.434;2022-08-14T17:01:57;25.40;51.00
39737;DHT22;25421;48.918;9.434;2022-08-14T17:04:05;25.50;51.00
39737;DHT22;25421;48.918;9.434;2022-08-14T17:06:37;25.50;51.00
39737;DHT22;25421;48.918;9.434;2022-08-14T17:08:43;25.50;51.00
39737;DHT22;25421;48.918;9.434;2022-08-14T17:13:16;25.50;50.90
39737;DHT22;25421;48.918;9.434;2022-08-14T17:15:18;25.50;50.90
39737;DHT22;25421;48.918;9.434;2022-08-14T17:17:25;25.50;50.70
39737;DHT22;25421;48.918;9.434;2022-08-14T17:19:36;25.60;50.90
39737;DHT22;25421;48.918;9.434;2022-08-14T17:21:42;25.60;51.10
39737;DHT22;25421;48.918;9.434;2022-08-14T17:23:49;25.60;51.00
39737;DHT22;25421;48.918;9.434;2022-08-14T17:25:51;25.60;50.70
39737;DHT22;25421;48.918;9.434;2022-08-14T17:30:51;25.60;50.20
39737;DHT22;25421;48.918;9.434;2022-08-14T17:32:53;25.60;49.90
39737;DHT22;25421;48.918;9.434;2022-08-14T17:34:59;25.60;49.70
39737;DHT22;25421;48.918;9.434;2022-08-14T17:37:02;25.60;49.50
39737;DHT22;25421;48.918;9.434;2022-08-14T17:39:10;25.60;49.40
39737;DHT22;25421;48.918;9.434;2022-08-14T17:41:22;25.60;49.10
39737;DHT22;25421;48.918;9.434;2022-08-14T17:43:36;25.60;49.10
39737;DHT22;25421;48.918;9.434;2022-08-14T17:45:43;25.60;48.90
39737;DHT22;25421;48.918;9.434;2022-08-14T17:47:48;25.60;49.50
39737;DHT22;25421;48.918;9.434;2022-08-14T17:49:51;25.60;48.80
39737;DHT22;25421;48.918;9.434;2022-08-14T17:54:19;25.60;48.60
39737;DHT22;25421;48.918;9.434;2022-08-14T17:56:35;25.70;48.60
39737;DHT22;25421;48.918;9.434;2022-08-14T17:58:39;25.70;48.50
39737;DHT22;25421;48.918;9.434;2022-08-14T18:00:42;25.70;48.60
39737;DHT22;25421;48.918;9.434;2022-08-14T18:02:45;25.70;48.40
39737;DHT22;25421;48.918;9.434;2022-08-14T18:04:55;25.70;48.60
39737;DHT22;25421;48.918;9.434;2022-08-14T18:07:04;25.70;48.60
39737;DHT22;25421;48.918;9.434;2022-08-14T18:09:27;25.70;48.70
39737;DHT22;25421;48.918;9.434;2022-08-14T18:11:33;25.70;48.70
39737;DHT22;25421;48.918;9.434;2022-08-14T18:13:48;25.70;49.00
39737;DHT22;25421;48.918;9.434;2022-08-14T18:15:55;25.70;48.90
39737;DHT22;25421;48.918;9.434;2022-08-14T18:18:00;25.70;49.00
39737;DHT22;25421;48.918;9.434;2022-08-14T18:20:04;25.70;48.80
39737;DHT22;25421;48.918;9.434;2022-08-14T18:22:26;25.80;48.70
39737;DHT22;25421;48.918;9.434;2022-08-14T18:24:40;25.80;49.10
39737;DHT22;25421;48.918;9.434;2022-08-14T18:26:42;25.80;49.40
39737;DHT22;25421;48.918;9.434;2022-08-14T18:28:46;25.80;49.50
39737;DHT22;25421;48.918;9.434;2022-08-14T18:33:24;25.80;50.80
39737;DHT22;25421;48.918;9.434;2022-08-14T18:35:49;25.80;52.40
39737;DHT22;25421;48.918;9.434;2022-08-14T18:38:20;25.80;51.20
39737;DHT22;25421;48.918;9.434;2022-08-14T18:40:27;25.80;51.60
39737;DHT22;25421;48.918;9.434;2022-08-14T18:49:16;25.90;54.60
39737;DHT22;25421;48.918;9.434;2022-08-14T18:51:24;25.90;54.50
39737;DHT22;25421;48.918;9.434;2022-08-14T18:53:58;26.00;54.60
39737;DHT22;25421;48.918;9.434;2022-08-14T18:56:03;26.00;53.30
39737;DHT22;25421;48.918;9.434;2022-08-14T18:58:11;26.00;53.30
39737;DHT22;25421;48.918;9.434;2022-08-14T19:02:52;26.00;54.10
39737;DHT22;25421;48.918;9.434;2022-08-14T19:04:56;26.00;54.90
39737;DHT22;25421;48.918;9.434;2022-08-14T19:07:14;26.10;55.50
39737;DHT22;25421;48.918;9.434;2022-08-14T19:09:51;26.10;55.40
39737;DHT22;25421;48.918;9.434;2022-08-14T19:11:53;26.10;54.60
39737;DHT22;25421;48.918;9.434;2022-08-14T19:13:57;26.10;55.50
39737;DHT22;25421;48.918;9.434;2022-08-14T19:16:19;26.10;55.80
39737;DHT22;25421;48.918;9.434;2022-08-14T19:18:29;26.10;56.70
39737;DHT22;25421;48.918;9.434;2022-08-14T19:20:50;26.20;55.60
39737;DHT22;25421;48.918;9.434;2022-08-14T19:22:54;26.20;55.40
39737;DHT22;25421;48.918;9.434;2022-08-14T19:24:56;26.10;55.00
39737;DHT22;25421;48.918;9.434;2022-08-14T19:27:19;26.10;54.70
39737;DHT22;25421;48.918;9.434;2022-08-14T19:29:30;26.20;54.60
39737;DHT22;25421;48.918;9.434;2022-08-14T19:31:42;26.20;54.50
39737;DHT22;25421;48.918;9.434;2022-08-14T19:33:57;26.10;54.40
39737;DHT22;25421;48.918;9.434;2022-08-14T19:36:11;26.20;54.40
39737;DHT22;25421;48.918;9.434;2022-08-14T19:40:45;26.20;54.50
39737;DHT22;25421;48.918;9.434;2022-08-14T19:42:50;26.20;54.40
39737;DHT22;25421;48.918;9.434;2022-08-14T19:44:58;26.20;55.60
39737;DHT22;25421;48.918;9.434;2022-08-14T19:47:01;26.30;55.30
39737;DHT22;25421;48.918;9.434;2022-08-14T19:49:09;26.30;57.00
39737;DHT22;25421;48.918;9.434;2022-08-14T19:51:12;26.30;58.70
39737;DHT22;25421;48.918;9.434;2022-08-14T19:53:14;26.40;56.90
39737;DHT22;25421;48.918;9.434;2022-08-14T19:55:19;26.40;57.10
39737;DHT22;25421;48.918;9.434;2022-08-14T19:57:34;26.30;49.00
39737;DHT22;25421;48.918;9.434;2022-08-14T19:59:36;26.00;48.00
39737;DHT22;25421;48.918;9.434;2022-08-14T20:01:58;25.90;47.00
39737;DHT22;25421;48.918;9.434;2022-08-14T20:04:02;25.80;49.00
39737;DHT22;25421;48.918;9.434;2022-08-14T20:06:05;25.80;49.70
39737;DHT22;25421;48.918;9.434;2022-08-14T20:08:11;25.70;47.80
39737;DHT22;25421;48.918;9.434;2022-08-14T20:10:37;25.70;48.20
39737;DHT22;25421;48.918;9.434;2022-08-14T20:13:01;25.70;48.10
39737;DHT22;25421;48.918;9.434;2022-08-14T20:15:06;25.60;47.20
39737;DHT22;25421;48.918;9.434;2022-08-14T20:17:13;25.50;45.90
39737;DHT22;25421;48.918;9.434;2022-08-14T20:21:29;25.40;46.50
39737;DHT22;25421;48.918;9.434;2022-08-14T20:23:35;25.40;46.90
39737;DHT22;25421;48.918;9.434;2022-08-14T20:25:41;25.50;45.50
39737;DHT22;25421;48.918;9.434;2022-08-14T20:27:57;25.60;45.00
39737;DHT22;25421;48.918;9.434;2022-08-14T20:30:31;25.70;45.20
39737;DHT22;25421;48.918;9.434;2022-08-14T20:34:40;25.80;44.70
39737;DHT22;25421;48.918;9.434;2022-08-14T20:37:05;25.80;45.80
39737;DHT22;25421;48.918;9.434;2022-08-14T20:39:12;25.80;45.70
39737;DHT22;25421;48.918;9.434;2022-08-14T20:41:19;25.70;46.10
39737;DHT22;25421;48.918;9.434;2022-08-14T20:43:31;25.70;46.80
39737;DHT22;25421;48.918;9.434;2022-08-14T20:45:53;25.60;47.40
39737;DHT22;25421;48.918;9.434;2022-08-14T20:47:58;25.50;47.70
39737;DHT22;25421;48.918;9.434;2022-08-14T20:50:23;25.40;48.50
39737;DHT22;25421;48.918;9.434;2022-08-14T20:52:29;25.40;48.40
39737;DHT22;25421;48.918;9.434;2022-08-14T20:54:32;25.40;48.40
39737;DHT22;25421;48.918;9.434;2022-08-14T20:56:49;25.30;48.60
